createdAt,value
2022-11-21T00:00:51.669Z,64.70
2022-11-21T00:03:18.372Z,65.90
2022-11-21T00:05:47.670Z,66.80
2022-11-21T00:08:19.628Z,62.30
2022-11-21T00:10:47.043Z,58.60
2022-11-21T00:13:17.857Z,62.40
2022-11-21T00:15:44.605Z,56.20
2022-11-21T00:18:12.282Z,69.40
2022-11-21T00:20:40.413Z,61.20
2022-11-21T00:23:07.512Z,65.00
2022-11-21T00:25:34.242Z,62.90
2022-11-21T00:28:00.623Z,68.20
2022-11-21T00:30:27.117Z,65.60
2022-11-21T00:32:53.448Z,71.20
2022-11-21T00:35:19.897Z,60.50
2022-11-21T00:37:48.044Z,67.50
2022-11-21T00:40:14.978Z,60.50
2022-11-21T00:42:41.725Z,56.10
2022-11-21T00:45:08.935Z,52.00
2022-11-21T00:47:35.425Z,61.80
2022-11-21T00:50:01.825Z,53.60
2022-11-21T00:52:28.220Z,58.20
2022-11-21T00:54:54.935Z,61.10
2022-11-21T00:57:21.345Z,56.20
2022-11-21T00:59:47.771Z,62.30
2022-11-21T01:02:14.216Z,65.50
2022-11-21T01:04:40.675Z,55.90
2022-11-21T01:07:07.087Z,54.10
2022-11-21T01:09:33.516Z,60.50
2022-11-21T01:11:59.939Z,62.50
2022-11-21T01:14:26.551Z,56.40
2022-11-21T01:16:53.138Z,57.10
2022-11-21T01:19:19.613Z,53.50
2022-11-21T01:21:46.051Z,58.60
2022-11-21T01:24:12.432Z,56.50
2022-11-21T01:26:38.948Z,61.90
2022-11-21T01:29:06.505Z,58.70
2022-11-21T01:31:33.033Z,50.90
2022-11-21T01:34:00.336Z,54.90
2022-11-21T01:36:32.863Z,53.50
2022-11-21T01:39:09.697Z,60.40
2022-11-21T01:41:41.559Z,54.00
2022-11-21T01:44:23.011Z,49.90
2022-11-21T01:46:51.338Z,49.40
2022-11-21T01:49:30.295Z,53.30
2022-11-21T01:52:03.078Z,52.80
2022-11-21T01:57:29.470Z,51.30
2022-11-21T01:59:58.856Z,47.50
2022-11-21T02:02:30.792Z,43.10
2022-11-21T02:04:57.740Z,50.10
2022-11-21T02:07:25.272Z,48.10
2022-11-21T02:09:59.133Z,51.50
2022-11-21T02:12:35.004Z,53.50
2022-11-21T02:15:01.543Z,44.70
2022-11-21T02:17:32.250Z,44.40
2022-11-21T02:20:13.993Z,49.20
2022-11-21T02:23:25.315Z,43.60
2022-11-21T02:25:51.828Z,45.60
2022-11-21T02:28:22.802Z,49.60
2022-11-21T02:30:49.428Z,41.60
2022-11-21T02:33:16.026Z,51.00
2022-11-21T02:35:42.624Z,46.50
2022-11-21T02:38:36.493Z,45.30
2022-11-21T02:41:25.668Z,44.40
2022-11-21T02:43:56.509Z,40.90
2022-11-21T02:46:22.913Z,45.50
2022-11-21T02:48:49.280Z,46.20
2022-11-21T02:51:15.834Z,48.80
2022-11-21T02:53:42.345Z,48.30
2022-11-21T02:56:08.720Z,48.90
2022-11-21T02:58:35.465Z,45.30
2022-11-21T03:01:01.941Z,49.70
2022-11-21T03:03:28.504Z,46.10
2022-11-21T03:05:56.089Z,46.10
2022-11-21T03:08:22.691Z,44.20
2022-11-21T03:10:49.216Z,46.20
2022-11-21T03:13:15.656Z,45.30
2022-11-21T03:15:42.156Z,47.50
2022-11-21T03:18:08.551Z,40.10
2022-11-21T03:20:35.121Z,38.00
2022-11-21T03:23:01.734Z,39.60
2022-11-21T03:25:28.711Z,40.70
2022-11-21T03:27:55.333Z,39.20
2022-11-21T03:30:24.413Z,41.00
2022-11-21T03:32:51.061Z,41.20
2022-11-21T03:35:17.520Z,45.20
2022-11-21T03:37:44.160Z,45.70
2022-11-21T03:40:11.334Z,53.00
2022-11-21T03:42:37.740Z,49.90
2022-11-21T03:45:04.941Z,50.60
2022-11-21T03:47:31.590Z,56.80
2022-11-21T03:49:58.067Z,43.00
2022-11-21T03:52:24.628Z,37.70
2022-11-21T03:54:51.172Z,42.50
2022-11-21T03:57:17.582Z,39.70
2022-11-21T03:59:44.030Z,41.50
2022-11-21T04:02:10.389Z,41.80
2022-11-21T04:04:37.172Z,37.30
2022-11-21T04:07:03.738Z,40.80
2022-11-21T04:09:30.264Z,38.50
2022-11-21T04:11:56.622Z,41.10
2022-11-21T04:14:23.065Z,42.50
2022-11-21T04:16:49.473Z,41.20
2022-11-21T04:19:18.745Z,42.10
2022-11-21T04:21:45.120Z,43.40
2022-11-21T04:24:11.834Z,46.20
2022-11-21T04:26:38.257Z,42.50
2022-11-21T04:29:04.699Z,55.70
2022-11-21T04:31:31.233Z,52.90
2022-11-21T04:33:58.222Z,45.40
2022-11-21T04:36:24.753Z,43.00
2022-11-21T04:38:51.191Z,42.00
2022-11-21T04:41:17.627Z,51.20
2022-11-21T04:43:44.010Z,50.90
2022-11-21T04:46:10.463Z,50.00
2022-11-21T04:48:37.075Z,53.20
2022-11-21T04:51:03.546Z,54.90
2022-11-21T04:53:30.006Z,54.40
2022-11-21T04:55:56.492Z,52.20
2022-11-21T04:58:22.894Z,52.10
2022-11-21T05:00:49.419Z,55.10
2022-11-21T05:03:16.139Z,50.90
2022-11-21T05:05:42.654Z,45.60
2022-11-21T05:08:11.486Z,52.20
2022-11-21T05:11:07.187Z,52.80
2022-11-21T05:13:33.887Z,54.90
2022-11-21T05:16:00.512Z,57.50
2022-11-21T05:18:28.308Z,56.70
2022-11-21T05:20:58.122Z,55.80
2022-11-21T05:23:24.712Z,60.30
2022-11-21T05:25:51.364Z,55.80
2022-11-21T05:28:17.909Z,73.20
2022-11-21T05:31:03.933Z,77.50
2022-11-21T05:33:30.727Z,81.80
2022-11-21T05:35:57.332Z,68.70
2022-11-21T05:38:23.970Z,64.10
2022-11-21T05:40:53.597Z,83.90
2022-11-21T05:43:38.774Z,130.80
2022-11-21T05:46:05.283Z,171.60
2022-11-21T05:48:33.581Z,145.00
2022-11-21T05:51:00.199Z,136.80
2022-11-21T05:53:26.772Z,107.40
2022-11-21T05:55:53.607Z,127.20
2022-11-21T05:58:20.227Z,84.50
2022-11-21T06:00:46.764Z,77.00
2022-11-21T06:03:30.027Z,52.40
2022-11-21T06:06:13.289Z,54.60
2022-11-21T06:08:45.646Z,49.50
2022-11-21T06:11:14.784Z,49.40
2022-11-21T06:13:41.905Z,51.60
2022-11-21T06:16:10.482Z,52.00
2022-11-21T06:18:43.246Z,60.30
2022-11-21T06:21:17.920Z,56.90
2022-11-21T06:23:45.065Z,59.70
2022-11-21T06:26:15.885Z,57.70
2022-11-21T06:28:44.063Z,60.90
2022-11-21T06:31:16.943Z,60.30
2022-11-21T06:36:15.736Z,60.00
2022-11-21T06:38:43.377Z,57.40
2022-11-21T06:41:18.070Z,68.30
2022-11-21T06:43:45.022Z,104.30
2022-11-21T06:46:12.590Z,120.50
2022-11-21T06:48:39.761Z,116.30
2022-11-21T06:51:12.144Z,104.70
2022-11-21T06:53:38.648Z,102.70
2022-11-21T06:56:05.309Z,99.80
2022-11-21T06:58:31.853Z,66.60
2022-11-21T07:01:06.613Z,86.80
2022-11-21T07:03:34.015Z,101.30
2022-11-21T07:06:01.323Z,76.20
2022-11-21T07:08:29.425Z,72.80
2022-11-21T07:11:23.637Z,68.90
2022-11-21T07:13:47.023Z,55.80
2022-11-21T07:16:13.788Z,57.80
2022-11-21T07:18:41.371Z,57.50
2022-11-21T07:21:08.708Z,62.10
2022-11-21T07:23:37.713Z,59.80
2022-11-21T07:26:07.130Z,56.80
2022-11-21T07:28:34.243Z,57.30
2022-11-21T07:31:11.704Z,56.70
2022-11-21T07:33:39.865Z,70.20
2022-11-21T07:36:06.825Z,72.80
2022-11-21T07:38:33.349Z,61.70
2022-11-21T07:41:00.453Z,65.00
2022-11-21T07:43:26.852Z,61.30
2022-11-21T07:45:53.729Z,63.50
2022-11-21T07:48:20.669Z,70.30
2022-11-21T07:50:47.100Z,71.60
2022-11-21T07:53:16.669Z,72.60
2022-11-21T07:55:43.290Z,73.40
2022-11-21T07:58:12.297Z,64.10
2022-11-21T08:00:43.960Z,69.60
2022-11-21T08:03:12.622Z,85.40
2022-11-21T08:05:41.692Z,78.10
2022-11-21T08:08:10.323Z,86.80
2022-11-21T08:10:39.154Z,84.20
2022-11-21T08:13:08.284Z,83.70
2022-11-21T08:15:38.053Z,74.50
2022-11-21T08:18:18.555Z,71.60
2022-11-21T08:20:45.284Z,73.20
2022-11-21T08:23:12.009Z,77.00
2022-11-21T08:25:42.228Z,83.40
2022-11-21T08:28:10.673Z,89.50
2022-11-21T08:30:38.122Z,98.90
2022-11-21T08:33:05.929Z,89.30
2022-11-21T08:35:35.256Z,74.30
2022-11-21T08:38:04.055Z,85.10
2022-11-21T08:40:34.956Z,78.20
2022-11-21T08:43:05.024Z,79.20
2022-11-21T08:45:33.035Z,78.60
2022-11-21T08:48:00.481Z,83.20
2022-11-21T08:50:31.494Z,86.60
2022-11-21T08:53:01.861Z,95.60
2022-11-21T08:55:29.798Z,90.20
2022-11-21T08:57:56.406Z,84.50
2022-11-21T09:00:23.326Z,80.20
2022-11-21T09:02:52.188Z,78.90
2022-11-21T09:05:24.894Z,77.10
2022-11-21T09:07:57.896Z,70.50
2022-11-21T09:10:28.474Z,81.50
2022-11-21T09:12:59.290Z,83.30
2022-11-21T09:15:44.270Z,88.00
2022-11-21T09:18:11.382Z,80.20
2022-11-21T09:20:41.270Z,81.70
2022-11-21T09:23:11.494Z,83.00
2022-11-21T09:25:38.585Z,73.80
2022-11-21T09:28:07.548Z,78.50
2022-11-21T09:30:34.574Z,91.10
2022-11-21T09:33:02.824Z,89.80
2022-11-21T09:35:29.466Z,81.30
2022-11-21T09:37:56.127Z,80.50
2022-11-21T09:40:23.223Z,83.60
2022-11-21T09:43:15.084Z,77.70
2022-11-21T09:45:49.351Z,69.70
2022-11-21T09:48:39.224Z,73.90
2022-11-21T09:51:11.908Z,71.40
2022-11-21T09:54:00.111Z,73.00
2022-11-21T09:56:30.113Z,78.60
2022-11-21T09:59:21.273Z,80.00
2022-11-21T10:01:47.914Z,73.80
2022-11-21T10:04:20.560Z,80.70
2022-11-21T10:07:11.227Z,70.40
2022-11-21T10:10:19.425Z,75.70
2022-11-21T10:13:27.329Z,79.00
2022-11-21T10:16:14.950Z,78.30
2022-11-21T10:19:38.221Z,76.70
2022-11-21T10:22:48.688Z,77.00
2022-11-21T10:25:26.888Z,78.50
2022-11-21T10:28:13.209Z,76.70
2022-11-21T10:30:43.881Z,69.90
2022-11-21T10:33:27.202Z,67.40
2022-11-21T10:36:06.888Z,71.90
2022-11-21T10:38:41.597Z,75.80
2022-11-21T10:41:20.103Z,70.40
2022-11-21T10:44:27.968Z,70.50
2022-11-21T10:46:59.883Z,69.00
2022-11-21T10:49:29.257Z,74.30
2022-11-21T10:52:17.194Z,109.50
2022-11-21T10:55:17.332Z,97.50
2022-11-21T10:57:45.902Z,84.10
2022-11-21T11:00:12.288Z,79.20
2022-11-21T11:03:05.590Z,66.20
2022-11-21T11:05:35.778Z,76.50
2022-11-21T11:08:13.656Z,79.10
2022-11-21T11:10:47.421Z,74.80
2022-11-21T11:13:49.911Z,66.00
2022-11-21T11:16:20.579Z,77.70
2022-11-21T11:19:01.283Z,75.30
2022-11-21T11:21:35.039Z,75.20
2022-11-21T11:24:13.002Z,71.90
2022-11-21T11:26:49.111Z,76.80
2022-11-21T11:29:29.860Z,73.90
2022-11-21T11:32:20.565Z,69.00
2022-11-21T11:35:02.359Z,78.00
2022-11-21T11:37:45.440Z,76.50
2022-11-21T11:40:37.775Z,85.60
2022-11-21T11:44:06.034Z,80.30
2022-11-21T11:47:02.813Z,72.60
2022-11-21T11:50:00.197Z,79.20
2022-11-21T11:52:49.806Z,74.30
2022-11-21T11:55:39.009Z,74.00
2022-11-21T11:58:21.251Z,80.20
2022-11-21T12:00:58.998Z,102.40
2022-11-21T12:04:02.859Z,80.80
2022-11-21T12:11:11.567Z,77.10
2022-11-21T12:13:39.582Z,76.70
2022-11-21T12:16:13.767Z,80.70
2022-11-21T12:19:02.348Z,76.10
2022-11-21T12:21:29.090Z,78.40
2022-11-21T12:24:01.993Z,81.70
2022-11-21T12:26:49.969Z,77.90
2022-11-21T12:29:36.878Z,83.20
2022-11-21T12:32:45.426Z,79.60
2022-11-21T12:35:24.226Z,74.20
2022-11-21T12:38:14.780Z,79.70
2022-11-21T12:40:59.540Z,76.00
2022-11-21T12:43:47.126Z,75.90
2022-11-21T12:46:20.920Z,78.80
2022-11-21T12:49:15.368Z,83.70
2022-11-21T12:52:15.245Z,78.50
2022-11-21T12:55:09.538Z,75.30
2022-11-21T12:57:54.641Z,81.00
2022-11-21T13:00:47.250Z,80.20
2022-11-21T13:03:54.980Z,82.60
2022-11-21T13:06:28.219Z,81.00
2022-11-21T13:08:56.782Z,80.80
2022-11-21T13:11:57.952Z,83.20
2022-11-21T13:14:34.680Z,87.20
2022-11-21T13:17:06.044Z,94.30
2022-11-21T13:20:16.416Z,92.70
2022-11-21T13:22:43.064Z,100.00
2022-11-21T13:25:10.737Z,97.40
2022-11-21T13:27:44.033Z,88.70
2022-11-21T13:30:10.891Z,89.90
2022-11-21T13:32:45.518Z,87.10
2022-11-21T13:35:18.529Z,96.90
2022-11-21T13:37:51.539Z,99.80
2022-11-21T13:40:29.871Z,92.10
2022-11-21T13:43:32.183Z,95.60
2022-11-21T13:45:58.182Z,98.10
2022-11-21T13:48:30.992Z,93.60
2022-11-21T13:54:05.496Z,86.70
2022-11-21T13:57:07.282Z,98.90
2022-11-21T13:59:56.747Z,102.70
2022-11-21T14:02:44.191Z,93.80
2022-11-21T14:05:48.700Z,97.80
2022-11-21T14:08:23.541Z,94.70
2022-11-21T14:10:52.024Z,97.00
2022-11-21T14:13:27.482Z,95.00
2022-11-21T14:16:40.710Z,97.40
2022-11-21T14:19:16.638Z,99.50
2022-11-21T14:21:46.817Z,94.80
2022-11-21T14:24:18.055Z,99.70
2022-11-21T14:26:52.368Z,98.80
2022-11-21T14:29:40.227Z,104.80
2022-11-21T14:32:14.234Z,94.30
2022-11-21T14:34:40.781Z,100.00
2022-11-21T14:37:07.831Z,98.30
2022-11-21T14:39:43.698Z,103.00
2022-11-21T14:42:15.784Z,94.10
2022-11-21T14:44:43.027Z,97.70
2022-11-21T14:47:21.479Z,99.00
2022-11-21T14:49:54.170Z,100.40
2022-11-21T14:52:29.947Z,98.80
2022-11-21T14:57:48.445Z,90.00
2022-11-21T15:03:22.234Z,89.90
2022-11-21T15:06:07.319Z,89.80
2022-11-21T15:11:30.124Z,81.70
2022-11-21T15:14:18.017Z,80.40
2022-11-21T15:16:47.523Z,89.40
2022-11-21T15:19:27.343Z,85.00
2022-11-21T15:22:00.725Z,85.50
2022-11-21T15:24:42.075Z,84.10
2022-11-21T15:27:26.885Z,81.20
2022-11-21T15:30:20.556Z,82.50
2022-11-21T15:33:19.480Z,88.20
2022-11-21T15:38:47.214Z,89.60
2022-11-21T15:41:35.145Z,90.50
2022-11-21T15:44:01.620Z,95.30
2022-11-21T15:46:31.575Z,98.30
2022-11-21T15:49:30.863Z,99.30
2022-11-21T15:52:10.128Z,95.30
2022-11-21T15:54:37.442Z,93.30
2022-11-21T15:57:04.046Z,95.10
2022-11-21T15:57:14.112Z,84.70
2022-11-21T15:59:30.743Z,100.00
2022-11-21T16:01:57.618Z,101.60
2022-11-21T16:04:26.123Z,93.10
2022-11-21T16:06:57.148Z,95.00
2022-11-21T16:09:24.558Z,106.70
2022-11-21T16:11:51.073Z,105.40
2022-11-21T16:14:22.831Z,91.30
2022-11-21T16:16:49.391Z,94.80
2022-11-21T16:19:15.866Z,98.70
2022-11-21T16:21:42.584Z,93.40
2022-11-21T16:24:09.155Z,95.90
2022-11-21T16:26:36.231Z,102.20
2022-11-21T16:29:05.046Z,82.10
2022-11-21T16:31:31.948Z,88.90
2022-11-21T16:34:02.354Z,93.30
2022-11-21T16:36:30.608Z,90.40
2022-11-21T16:39:07.711Z,81.40
2022-11-21T16:41:40.413Z,92.20
2022-11-21T16:44:13.459Z,94.50
2022-11-21T16:46:50.917Z,93.50
2022-11-21T16:49:25.017Z,91.80
2022-11-21T16:51:58.477Z,107.40
2022-11-21T16:54:27.429Z,99.10
2022-11-21T16:56:53.873Z,95.70
2022-11-21T16:59:20.357Z,94.50
2022-11-21T17:01:53.593Z,95.60
2022-11-21T17:04:23.613Z,114.90
2022-11-21T17:06:50.155Z,115.50
2022-11-21T17:09:21.845Z,108.60
2022-11-21T17:11:48.476Z,98.80
2022-11-21T17:14:16.077Z,106.00
2022-11-21T17:16:48.742Z,104.90
2022-11-21T17:19:16.975Z,106.90
2022-11-21T17:21:43.736Z,109.20
2022-11-21T17:24:13.137Z,109.10
2022-11-21T17:26:44.193Z,101.00
2022-11-21T17:29:10.813Z,100.30
2022-11-21T17:31:47.029Z,103.20
2022-11-21T17:34:26.990Z,100.70
2022-11-21T17:36:56.489Z,107.70
2022-11-21T17:39:29.256Z,115.90
2022-11-21T17:41:59.010Z,98.40
2022-11-21T17:44:25.578Z,119.70
2022-11-21T17:46:53.315Z,137.00
2022-11-21T17:49:20.733Z,117.60
2022-11-21T17:51:47.441Z,126.60
2022-11-21T17:54:16.118Z,118.50
2022-11-21T17:56:47.393Z,110.50
2022-11-21T17:59:18.535Z,104.90
2022-11-21T18:01:46.551Z,109.30
2022-11-21T18:04:17.108Z,109.70
2022-11-21T18:06:43.828Z,104.20
2022-11-21T18:09:12.013Z,104.90
2022-11-21T18:11:41.072Z,102.40
2022-11-21T18:14:09.918Z,118.80
2022-11-21T18:16:42.733Z,121.40
2022-11-21T18:19:14.896Z,121.70
2022-11-21T18:21:41.768Z,113.20
2022-11-21T18:24:08.396Z,116.90
2022-11-21T18:26:37.277Z,108.80
2022-11-21T18:31:55.925Z,107.30
2022-11-21T18:34:24.742Z,105.90
2022-11-21T18:36:51.512Z,117.60
2022-11-21T18:39:20.206Z,115.10
2022-11-21T18:41:47.133Z,115.00
2022-11-21T18:44:20.053Z,109.00
2022-11-21T18:46:50.042Z,64.80
2022-11-21T18:49:19.677Z,42.80
2022-11-21T18:51:48.132Z,46.40
2022-11-21T18:54:17.807Z,50.40
2022-11-21T18:56:44.202Z,57.90
2022-11-21T18:59:10.713Z,56.90
2022-11-21T19:01:39.265Z,79.10
2022-11-21T19:04:08.753Z,70.70
2022-11-21T19:06:37.785Z,72.40
2022-11-21T19:09:04.306Z,93.70
2022-11-21T19:11:33.960Z,83.60
2022-11-21T19:14:06.942Z,76.00
2022-11-21T19:16:34.292Z,56.70
2022-11-21T19:19:33.644Z,45.40
2022-11-21T19:22:03.889Z,38.50
2022-11-21T19:24:30.565Z,37.50
2022-11-21T19:26:59.326Z,36.80
2022-11-21T19:29:25.939Z,43.20
2022-11-21T19:31:53.816Z,42.30
2022-11-21T19:34:22.606Z,45.60
2022-11-21T19:36:50.878Z,42.40
2022-11-21T19:39:17.739Z,43.60
2022-11-21T19:41:48.707Z,44.80
2022-11-21T19:44:18.108Z,50.10
2022-11-21T19:46:50.587Z,49.70
2022-11-21T19:49:20.555Z,40.30
2022-11-21T19:51:47.091Z,48.40
2022-11-21T19:54:16.383Z,68.70
2022-11-21T19:56:44.253Z,70.60
2022-11-21T19:59:12.836Z,80.10
2022-11-21T20:01:39.933Z,87.00
2022-11-21T20:04:07.212Z,83.40
2022-11-21T20:06:45.321Z,82.20
2022-11-21T20:09:15.306Z,78.20
2022-11-21T20:11:47.916Z,202.80
2022-11-21T20:14:21.349Z,172.70
2022-11-21T20:16:49.616Z,184.90
2022-11-21T20:19:19.064Z,150.70
2022-11-21T20:21:46.956Z,135.20
2022-11-21T20:24:15.385Z,125.00
2022-11-21T20:26:44.156Z,80.90
2022-11-21T20:29:14.989Z,83.60
2022-11-21T20:31:42.536Z,74.60
2022-11-21T20:34:13.021Z,68.90
2022-11-21T20:36:40.593Z,70.80
2022-11-21T20:39:13.852Z,67.90
2022-11-21T20:41:40.954Z,58.50
2022-11-21T20:47:07.924Z,58.90
2022-11-21T20:49:35.320Z,55.50
2022-11-21T20:54:48.536Z,54.40
2022-11-21T20:57:15.731Z,58.00
2022-11-21T20:59:42.742Z,60.10
2022-11-21T21:02:13.239Z,57.40
2022-11-21T21:04:39.825Z,55.90
2022-11-21T21:07:07.503Z,57.40
2022-11-21T21:09:34.195Z,58.80
2022-11-21T21:12:01.015Z,58.80
2022-11-21T21:14:29.316Z,57.50
2022-11-21T21:16:59.467Z,61.30
2022-11-21T21:19:26.025Z,54.00
2022-11-21T21:21:52.489Z,54.40
2022-11-21T21:24:19.051Z,52.80
2022-11-21T21:26:49.692Z,52.20
2022-11-21T21:29:19.412Z,60.70
2022-11-21T21:31:51.085Z,76.30
2022-11-21T21:34:22.422Z,70.70
2022-11-21T21:36:50.591Z,64.50
2022-11-21T21:39:20.090Z,61.50
2022-11-21T21:41:47.527Z,67.80
2022-11-21T21:44:15.647Z,64.80
2022-11-21T21:46:45.284Z,67.50
2022-11-21T21:49:12.231Z,69.40
2022-11-21T21:51:39.435Z,73.50
2022-11-21T21:54:06.581Z,126.80
2022-11-21T21:56:36.032Z,139.10
2022-11-21T21:59:02.755Z,86.50
2022-11-21T22:01:32.570Z,78.40
2022-11-21T22:04:04.193Z,83.50
2022-11-21T22:06:34.673Z,74.40
2022-11-21T22:09:02.195Z,86.80
2022-11-21T22:11:31.833Z,67.60
2022-11-21T22:14:06.611Z,72.30
2022-11-21T22:16:33.619Z,56.00
2022-11-21T22:19:00.404Z,75.00
2022-11-21T22:21:31.851Z,72.20
2022-11-21T22:26:52.801Z,53.50
2022-11-21T22:29:19.241Z,53.10
2022-11-21T22:31:46.850Z,57.40
2022-11-21T22:34:14.502Z,69.30
2022-11-21T22:36:43.117Z,65.80
2022-11-21T22:39:09.732Z,56.50
2022-11-21T22:41:39.955Z,60.90
2022-11-21T22:44:06.563Z,57.10
2022-11-21T22:46:37.280Z,53.70
2022-11-21T22:49:04.576Z,87.20
2022-11-21T22:51:32.327Z,65.30
2022-11-21T22:54:01.101Z,53.00
2022-11-21T22:56:27.722Z,59.70
2022-11-21T22:58:55.701Z,56.40
2022-11-21T23:01:25.580Z,57.20
2022-11-21T23:03:54.855Z,53.30
2022-11-21T23:07:37.667Z,52.90
2022-11-21T23:10:13.195Z,57.50
2022-11-21T23:12:44.362Z,60.70
2022-11-21T23:15:11.172Z,62.80
2022-11-21T23:17:37.478Z,56.30
2022-11-21T23:20:04.307Z,53.70
2022-11-21T23:22:30.600Z,54.90
2022-11-21T23:24:56.971Z,57.00
2022-11-21T23:27:23.235Z,60.80
2022-11-21T23:29:49.617Z,62.80
2022-11-21T23:32:16.479Z,68.10
2022-11-21T23:34:42.829Z,58.70
2022-11-21T23:37:09.380Z,56.90
2022-11-21T23:39:35.903Z,58.50
2022-11-21T23:42:02.504Z,54.30
2022-11-21T23:44:28.970Z,55.70
2022-11-21T23:46:55.430Z,58.90
2022-11-21T23:49:21.782Z,56.10
2022-11-21T23:51:48.444Z,60.40
2022-11-21T23:54:14.858Z,65.50
2022-11-21T23:56:44.084Z,64.00
2022-11-21T23:59:10.537Z,65.40
